Sagittarian — WCY5210 — position and weather

sailwx.info

Track history (hours):
 
Tides and Currents Weather Stations Pressure Air Temp Water Temp Dewpoint Dewpoint Depression Visibility Wind Speed Wind Dir Waves Ship Positions

Sagittarian

Owner: TAURUS MARINE, SAN FRANCISCO, CA. More information available from US FCC via Universal Licensing System and Coast Guard Vessel Documentation Center.

Last reported at 2015-May-02 18:07 UTC. Time now 2015-May-04 00:56 UTC.
Position N 37°46' W 122°23'.

; draft 3 m.

Type: Towing. MMSI: 366969510.

Date/timePositionNaut miles runAvg speedWind from/ knotsBaromVisibWave heightAir tempDewpointWater temp
2015-May-02 18:07N 37°46' W 122°23'0 0.1
2015-May-02 17:33N 37°46' W 122°23'0 0.0
2015-May-02 16:32N 37°47' W 122°23'1 0.7
2015-May-02 15:34N 37°47' W 122°23'2 1.5
2015-May-02 14:33N 37°47' W 122°21'3 0.1
2015-May-01 18:33N 37°49' W 122°24'6 4.8
2015-May-01 17:22N 37°49' W 122°31'4 4.4
2015-May-01 16:31N 37°50' W 122°27'5 4.7
2015-May-01 15:30N 37°55' W 122°26'1 0.9
2015-May-01 14:33N 37°54' W 122°25'8 7.9
2015-May-01 13:33N 37°46' W 122°23'0 0.0
2015-Apr-30 16:30N 37°46' W 122°23'8 8.3
2015-Apr-30 15:33N 37°54' W 122°25'1 0.9
2015-Apr-30 14:29N 37°55' W 122°26'5 4.9
2015-Apr-30 13:34N 37°51' W 122°24'4 0.3
2015-Apr-30 00:33N 37°46' W 122°23'5 5.2
2015-Apr-29 23:31N 37°48' W 122°30'1 0.9
2015-Apr-29 22:23N 37°49' W 122°30'5 6.5
2015-Apr-29 21:33N 37°53' W 122°25'3 2.6
2015-Apr-29 20:29N 37°55' W 122°25'0 0.3
2015-Apr-29 19:33N 37°55' W 122°25'0 0.1
2015-Apr-29 18:32N 37°55' W 122°25'7 7.6
2015-Apr-29 17:33N 37°48' W 122°23'1 1.4
2015-Apr-29 16:33N 37°46' W 122°23'0 0.0
2015-Apr-29 15:33N 37°46' W 122°23'0 0.0
2015-Apr-29 14:33N 37°46' W 122°23'0 0.0
2015-Apr-29 13:33N 37°46' W 122°23'0 0.0
2015-Apr-29 12:33N 37°46' W 122°23'0 0.0
2015-Apr-29 11:33N 37°46' W 122°23'0 0.0
2015-Apr-29 10:33N 37°46' W 122°23'0 0.0
2015-Apr-29 09:33N 37°46' W 122°23'0 0.0
2015-Apr-29 08:33N 37°46' W 122°23'0 0.0
2015-Apr-29 07:33N 37°46' W 122°23'0 0.0
2015-Apr-29 06:33N 37°46' W 122°23'0 0.0
2015-Apr-29 05:33N 37°46' W 122°23'0 0.0
2015-Apr-29 04:33N 37°46' W 122°23'0 0.0
2015-Apr-29 03:33N 37°46' W 122°23'0 0.0
2015-Apr-29 02:33N 37°46' W 122°23'0 0.0
2015-Apr-29 01:33N 37°46' W 122°23'0 0.0
2015-Apr-29 00:33N 37°46' W 122°23'0 0.4
2015-Apr-28 23:33N 37°47' W 122°23'1 1.2
2015-Apr-28 22:33N 37°48' W 122°23'8 5.3
2015-Apr-28 21:07N 37°55' W 122°25'1 1.0
2015-Apr-28 20:29N 37°56' W 122°26'9 9.5
2015-Apr-28 19:32N 38°03' W 122°18'8 3.4
2015-Apr-28 17:10N 38°02' W 122°08'6 0.4
2015-Apr-28 02:24N 38°05' W 122°15'8 8.0
2015-Apr-28 01:25N 38°03' W 122°06'1 1.4
2015-Apr-28 00:23N 38°02' W 122°08'5 6.0
2015-Apr-27 23:33N 38°04' W 122°14'12 5.7
2015-Apr-27 21:25N 37°57' W 122°26'1 1.0
2015-Apr-27 20:24N 37°56' W 122°26'910.0
2015-Apr-27 19:32N 38°03' W 122°19'3 1.5
2015-Apr-27 17:33N 38°04' W 122°16'0 0.1
2015-Apr-27 16:33N 38°04' W 122°16'2 1.7
2015-Apr-27 15:33N 38°03' W 122°18'12 3.9
2015-Apr-27 12:32N 37°53' W 122°25'4 4.2
2015-Apr-27 11:32N 37°49' W 122°26'4 3.6
2015-Apr-27 10:26N 37°49' W 122°31'2 0.8
2015-Apr-27 08:30N 37°49' W 122°29'5 5.6
2015-Apr-27 07:33N 37°46' W 122°23'0 0.0
2015-Apr-26 22:32N 37°47' W 122°23'9 4.5
2015-Apr-26 20:27N 37°56' W 122°26'13 3.3
2015-Apr-26 16:31N 38°05' W 122°15'2 0.1
2015-Apr-26 01:17N 38°04' W 122°14'5 2.6
2015-Apr-25 23:30N 38°02' W 122°09'6 6.5
2015-Apr-25 22:33N 38°03' W 122°16'9 8.4
2015-Apr-25 21:31N 37°59' W 122°26'8 8.7
2015-Apr-25 20:33N 37°51' W 122°24'4 0.4
2015-Apr-25 09:34N 37°46' W 122°23'6 5.6
2015-Apr-25 08:32N 37°49' W 122°29'4 3.7
2015-Apr-25 07:33N 37°50' W 122°25'5 4.2
2015-Apr-25 06:23N 37°55' W 122°25'0 0.0
2015-Apr-25 05:33N 37°55' W 122°25'4 3.9
2015-Apr-25 04:34N 37°52' W 122°24'3 0.7
2015-Apr-25 00:32N 37°49' W 122°24'6 6.0
2015-Apr-24 23:32N 37°55' W 122°26'1 1.2
2015-Apr-24 22:32N 37°55' W 122°25'8 7.8
2015-Apr-24 21:33N 37°48' W 122°23'2 1.5
2015-Apr-24 20:33N 37°46' W 122°23'0 0.0
2015-Apr-24 19:33N 37°46' W 122°23'0 0.0
2015-Apr-24 18:33N 37°46' W 122°23'4 4.4
2015-Apr-24 17:32N 37°51' W 122°24'5 4.6
2015-Apr-24 16:33N 37°55' W 122°25'6 6.3
2015-Apr-24 15:32N 37°49' W 122°23'3 0.2
2015-Apr-24 02:32N 37°46' W 122°23'3 2.4
2015-Apr-24 01:27N 37°46' W 122°20'0 0.1
2015-Apr-24 00:31N 37°45' W 122°20'0 0.1
2015-Apr-23 23:33N 37°45' W 122°20'0 0.0
2015-Apr-23 22:32N 37°45' W 122°20'0 0.0
2015-Apr-23 21:33N 37°45' W 122°20'0 0.0
2015-Apr-23 20:33N 37°45' W 122°20'0 0.1
2015-Apr-23 19:30N 37°45' W 122°20'0 0.2
2015-Apr-23 18:33N 37°46' W 122°20'2 1.8
2015-Apr-23 17:33N 37°46' W 122°22'1 0.0
2015-Apr-23 00:24N 37°46' W 122°23'3 3.1
2015-Apr-22 23:33N 37°45' W 122°20'0 0.1
2015-Apr-22 22:33N 37°45' W 122°20'3 2.6
2015-Apr-22 21:33N 37°46' W 122°23'  
Track history (hours):
 
Tides and Currents Weather Stations Pressure Air Temp Water Temp Dewpoint Dewpoint Depression Visibility Wind Speed Wind Dir Waves Ship Positions

Sagittarian

Owner: TAURUS MARINE, SAN FRANCISCO, CA. More information available from US FCC via Universal Licensing System and Coast Guard Vessel Documentation Center.

Last reported at 2015-May-02 18:07 UTC. Time now 2015-May-04 00:56 UTC.
Position N 37°46' W 122°23'.

; draft 3 m.

Type: Towing. MMSI: 366969510.

Date/timePositionNaut miles runAvg speedWind from/ knotsBaromVisibWave heightAir tempDewpointWater temp
2015-May-02 18:07N 37°46' W 122°23'0 0.1
2015-May-02 17:33N 37°46' W 122°23'0 0.0
2015-May-02 16:32N 37°47' W 122°23'1 0.7
2015-May-02 15:34N 37°47' W 122°23'2 1.5
2015-May-02 14:33N 37°47' W 122°21'3 0.1
2015-May-01 18:33N 37°49' W 122°24'6 4.8
2015-May-01 17:22N 37°49' W 122°31'4 4.4
2015-May-01 16:31N 37°50' W 122°27'5 4.7
2015-May-01 15:30N 37°55' W 122°26'1 0.9
2015-May-01 14:33N 37°54' W 122°25'8 7.9
2015-May-01 13:33N 37°46' W 122°23'0 0.0
2015-Apr-30 16:30N 37°46' W 122°23'8 8.3
2015-Apr-30 15:33N 37°54' W 122°25'1 0.9
2015-Apr-30 14:29N 37°55' W 122°26'5 4.9
2015-Apr-30 13:34N 37°51' W 122°24'4 0.3
2015-Apr-30 00:33N 37°46' W 122°23'5 5.2
2015-Apr-29 23:31N 37°48' W 122°30'1 0.9
2015-Apr-29 22:23N 37°49' W 122°30'5 6.5
2015-Apr-29 21:33N 37°53' W 122°25'3 2.6
2015-Apr-29 20:29N 37°55' W 122°25'0 0.3
2015-Apr-29 19:33N 37°55' W 122°25'0 0.1
2015-Apr-29 18:32N 37°55' W 122°25'7 7.6
2015-Apr-29 17:33N 37°48' W 122°23'1 1.4
2015-Apr-29 16:33N 37°46' W 122°23'0 0.0
2015-Apr-29 15:33N 37°46' W 122°23'0 0.0
2015-Apr-29 14:33N 37°46' W 122°23'0 0.0
2015-Apr-29 13:33N 37°46' W 122°23'0 0.0
2015-Apr-29 12:33N 37°46' W 122°23'0 0.0
2015-Apr-29 11:33N 37°46' W 122°23'0 0.0
2015-Apr-29 10:33N 37°46' W 122°23'0 0.0
2015-Apr-29 09:33N 37°46' W 122°23'0 0.0
2015-Apr-29 08:33N 37°46' W 122°23'0 0.0
2015-Apr-29 07:33N 37°46' W 122°23'0 0.0
2015-Apr-29 06:33N 37°46' W 122°23'0 0.0
2015-Apr-29 05:33N 37°46' W 122°23'0 0.0
2015-Apr-29 04:33N 37°46' W 122°23'0 0.0
2015-Apr-29 03:33N 37°46' W 122°23'0 0.0
2015-Apr-29 02:33N 37°46' W 122°23'0 0.0
2015-Apr-29 01:33N 37°46' W 122°23'0 0.0
2015-Apr-29 00:33N 37°46' W 122°23'0 0.4
2015-Apr-28 23:33N 37°47' W 122°23'1 1.2
2015-Apr-28 22:33N 37°48' W 122°23'8 5.3
2015-Apr-28 21:07N 37°55' W 122°25'1 1.0
2015-Apr-28 20:29N 37°56' W 122°26'9 9.5
2015-Apr-28 19:32N 38°03' W 122°18'8 3.4
2015-Apr-28 17:10N 38°02' W 122°08'6 0.4
2015-Apr-28 02:24N 38°05' W 122°15'8 8.0
2015-Apr-28 01:25N 38°03' W 122°06'1 1.4
2015-Apr-28 00:23N 38°02' W 122°08'5 6.0
2015-Apr-27 23:33N 38°04' W 122°14'12 5.7
2015-Apr-27 21:25N 37°57' W 122°26'1 1.0
2015-Apr-27 20:24N 37°56' W 122°26'910.0
2015-Apr-27 19:32N 38°03' W 122°19'3 1.5
2015-Apr-27 17:33N 38°04' W 122°16'0 0.1
2015-Apr-27 16:33N 38°04' W 122°16'2 1.7
2015-Apr-27 15:33N 38°03' W 122°18'12 3.9
2015-Apr-27 12:32N 37°53' W 122°25'4 4.2
2015-Apr-27 11:32N 37°49' W 122°26'4 3.6
2015-Apr-27 10:26N 37°49' W 122°31'2 0.8
2015-Apr-27 08:30N 37°49' W 122°29'5 5.6
2015-Apr-27 07:33N 37°46' W 122°23'0 0.0
2015-Apr-26 22:32N 37°47' W 122°23'9 4.5
2015-Apr-26 20:27N 37°56' W 122°26'13 3.3
2015-Apr-26 16:31N 38°05' W 122°15'2 0.1
2015-Apr-26 01:17N 38°04' W 122°14'5 2.6
2015-Apr-25 23:30N 38°02' W 122°09'6 6.5
2015-Apr-25 22:33N 38°03' W 122°16'9 8.4
2015-Apr-25 21:31N 37°59' W 122°26'8 8.7
2015-Apr-25 20:33N 37°51' W 122°24'4 0.4
2015-Apr-25 09:34N 37°46' W 122°23'6 5.6
2015-Apr-25 08:32N 37°49' W 122°29'4 3.7
2015-Apr-25 07:33N 37°50' W 122°25'5 4.2
2015-Apr-25 06:23N 37°55' W 122°25'0 0.0
2015-Apr-25 05:33N 37°55' W 122°25'4 3.9
2015-Apr-25 04:34N 37°52' W 122°24'3 0.7
2015-Apr-25 00:32N 37°49' W 122°24'6 6.0
2015-Apr-24 23:32N 37°55' W 122°26'1 1.2
2015-Apr-24 22:32N 37°55' W 122°25'8 7.8
2015-Apr-24 21:33N 37°48' W 122°23'2 1.5
2015-Apr-24 20:33N 37°46' W 122°23'0 0.0
2015-Apr-24 19:33N 37°46' W 122°23'0 0.0
2015-Apr-24 18:33N 37°46' W 122°23'4 4.4
2015-Apr-24 17:32N 37°51' W 122°24'5 4.6
2015-Apr-24 16:33N 37°55' W 122°25'6 6.3
2015-Apr-24 15:32N 37°49' W 122°23'3 0.2
2015-Apr-24 02:32N 37°46' W 122°23'3 2.4
2015-Apr-24 01:27N 37°46' W 122°20'0 0.1
2015-Apr-24 00:31N 37°45' W 122°20'0 0.1
2015-Apr-23 23:33N 37°45' W 122°20'0 0.0
2015-Apr-23 22:32N 37°45' W 122°20'0 0.0
2015-Apr-23 21:33N 37°45' W 122°20'0 0.0
2015-Apr-23 20:33N 37°45' W 122°20'0 0.1
2015-Apr-23 19:30N 37°45' W 122°20'0 0.2
2015-Apr-23 18:33N 37°46' W 122°20'2 1.8
2015-Apr-23 17:33N 37°46' W 122°22'1 0.0
2015-Apr-23 00:24N 37°46' W 122°23'3 3.1
2015-Apr-22 23:33N 37°45' W 122°20'0 0.1
2015-Apr-22 22:33N 37°45' W 122°20'3 2.6
2015-Apr-22 21:33N 37°46' W 122°23'  

Dump ship's entire track history